KVYS/VYS METAR and TAF weather

Enter ICAO airport designator
Station Type Date Time Source
KVYS METAR 2021/07/28 18:55 UTC NOAA

KVYS 281855Z AUTO 24007KT 10SM BKN055 BKN065 29/24 A3003 RMK AO2 T02910241


Station Type Date Time Source
KVYS Decoded METAR 2021/07/28 18:55 UTC NOAA

Peru, Illinois Valley Regional-Walter A Duncan Field Airport, IL, United States (KVYS) 41-21-07N 089-09-11W
Jul 28, 2021 - 02:55 PM EDT / 2021.07.28 1855 UTC
Wind: from the WSW (240 degrees) at 8 MPH (7 KT):0
Visibility: 10 mile(s):0
Sky conditions: mostly cloudy
Temperature: 84.4 F (29.1 C)
Dew Point: 75.4 F (24.1 C)
Relative Humidity: 74%
Pressure (altimeter): 30.03 in. Hg (1016 hPa)
ob: KVYS 281855Z AUTO 24007KT 10SM BKN055 BKN065 29/24 A3003 RMK AO2 T02910241
cycle: 19

Station Type Date Time Source
KVYS TAF UTC NOAA

Error!

Example: see airport list